createdAt,value
2018-10-19T00:01:56.699Z,22.25
2018-10-19T00:04:22.651Z,22.25
2018-10-19T00:06:48.699Z,22.24
2018-10-19T00:09:14.697Z,22.25
2018-10-19T00:11:40.615Z,22.24
2018-10-19T00:14:06.558Z,22.23
2018-10-19T00:16:32.532Z,22.25
2018-10-19T00:18:58.492Z,22.24
2018-10-19T00:21:24.464Z,22.24
2018-10-19T00:23:50.493Z,22.23
2018-10-19T00:26:16.515Z,22.23
2018-10-19T00:28:42.476Z,22.21
2018-10-19T00:31:08.490Z,22.23
2018-10-19T00:33:34.487Z,22.20
2018-10-19T00:36:00.449Z,22.20
2018-10-19T00:38:26.421Z,22.21
2018-10-19T00:40:52.387Z,22.22
2018-10-19T00:43:18.352Z,22.22
2018-10-19T00:45:44.315Z,22.22
2018-10-19T00:48:10.285Z,22.20
2018-10-19T00:50:36.240Z,22.21
2018-10-19T00:53:02.232Z,22.20
2018-10-19T00:55:28.360Z,22.21
2018-10-19T00:57:54.315Z,22.21
2018-10-19T01:00:20.275Z,22.21
2018-10-19T01:02:46.229Z,22.22
2018-10-19T01:05:12.335Z,22.21
2018-10-19T01:07:38.293Z,22.20
2018-10-19T01:10:04.250Z,22.21
2018-10-19T01:12:30.216Z,22.20
2018-10-19T01:14:56.233Z,22.19
2018-10-19T01:17:22.132Z,22.19
2018-10-19T01:19:48.143Z,22.17
2018-10-19T01:22:14.091Z,22.17
2018-10-19T01:24:40.044Z,22.18
2018-10-19T01:27:06.036Z,22.18
2018-10-19T01:29:31.941Z,22.19
2018-10-19T01:31:57.896Z,22.18
2018-10-19T01:34:23.859Z,22.17
2018-10-19T01:36:49.815Z,22.18
2018-10-19T01:39:16.049Z,22.19
2018-10-19T01:41:41.834Z,22.17
2018-10-19T01:44:07.844Z,22.17
2018-10-19T01:46:33.863Z,22.19
2018-10-19T01:48:59.823Z,22.19
2018-10-19T01:51:25.797Z,22.16
2018-10-19T01:53:51.787Z,22.15
2018-10-19T01:56:17.764Z,22.15
2018-10-19T01:58:43.730Z,22.14
2018-10-19T02:01:09.720Z,22.15
2018-10-19T02:03:35.694Z,22.15
2018-10-19T02:06:01.644Z,22.15
2018-10-19T02:08:27.608Z,22.16
2018-10-19T02:10:53.619Z,22.14
2018-10-19T02:13:19.532Z,22.15
2018-10-19T02:15:45.472Z,22.15
2018-10-19T02:18:11.504Z,22.15
2018-10-19T02:20:37.531Z,22.14
2018-10-19T02:23:03.555Z,22.15
2018-10-19T02:25:29.451Z,22.15
2018-10-19T02:27:55.412Z,22.14
2018-10-19T02:30:21.379Z,22.14
2018-10-19T02:32:47.328Z,22.15
2018-10-19T02:35:13.341Z,22.13
2018-10-19T02:37:39.268Z,22.14
2018-10-19T02:40:05.221Z,22.11
2018-10-19T02:42:31.173Z,22.11
2018-10-19T02:44:57.172Z,22.11
2018-10-19T02:47:23.107Z,22.10
2018-10-19T02:49:49.165Z,22.11
2018-10-19T02:52:15.129Z,22.10
2018-10-19T02:54:41.131Z,22.10
2018-10-19T02:57:07.167Z,22.12
2018-10-19T02:59:33.035Z,22.10
2018-10-19T03:01:59.053Z,22.10
2018-10-19T03:04:24.992Z,22.11
2018-10-19T03:06:50.946Z,22.11
2018-10-19T03:09:17.003Z,22.10
2018-10-19T03:11:42.957Z,22.10
2018-10-19T03:14:08.820Z,22.10
2018-10-19T03:16:34.782Z,22.10
2018-10-19T03:19:00.748Z,22.08
2018-10-19T03:21:26.699Z,22.09
2018-10-19T03:23:52.686Z,22.10
2018-10-19T03:26:18.627Z,22.08
2018-10-19T03:28:44.600Z,22.08
2018-10-19T03:31:10.682Z,22.09
2018-10-19T03:33:36.588Z,22.08
2018-10-19T03:36:02.545Z,22.09
2018-10-19T03:38:28.588Z,22.08
2018-10-19T03:40:54.550Z,22.08
2018-10-19T03:43:20.535Z,22.05
2018-10-19T03:45:46.508Z,22.08
2018-10-19T03:48:12.477Z,22.07
2018-10-19T03:50:38.440Z,22.05
2018-10-19T03:53:04.602Z,22.07
2018-10-19T03:55:30.444Z,22.05
2018-10-19T03:57:56.440Z,22.05
2018-10-19T04:00:22.480Z,22.07
2018-10-19T04:02:48.432Z,22.06
2018-10-19T04:05:14.400Z,22.05
2018-10-19T04:07:40.365Z,22.04
2018-10-19T04:10:06.328Z,22.05
2018-10-19T04:12:32.311Z,22.03
2018-10-19T04:14:58.297Z,22.04
2018-10-19T04:17:24.232Z,22.03
2018-10-19T04:19:50.166Z,22.03
2018-10-19T04:22:16.124Z,22.03
2018-10-19T04:24:42.068Z,22.03
2018-10-19T04:27:08.075Z,22.04
2018-10-19T04:29:34.004Z,22.04
2018-10-19T04:31:59.961Z,22.02
2018-10-19T04:34:25.910Z,22.02
2018-10-19T04:36:51.863Z,22.02
2018-10-19T04:39:17.864Z,22.02
2018-10-19T04:41:43.958Z,22.01
2018-10-19T04:44:09.747Z,22.02
2018-10-19T04:46:35.707Z,22.02
2018-10-19T04:49:01.705Z,22.01
2018-10-19T04:51:27.747Z,22.01
2018-10-19T04:53:53.797Z,22.01
2018-10-19T04:56:19.716Z,21.99
2018-10-19T04:58:45.678Z,22.01
2018-10-19T05:01:11.627Z,21.99
2018-10-19T05:03:37.578Z,21.99
2018-10-19T05:06:03.600Z,21.99
2018-10-19T05:08:29.512Z,21.99
2018-10-19T05:10:55.474Z,21.98
2018-10-19T05:13:21.428Z,21.97
2018-10-19T05:15:47.382Z,21.99
2018-10-19T05:18:13.340Z,21.97
2018-10-19T05:20:39.347Z,21.96
2018-10-19T05:23:05.328Z,21.97
2018-10-19T05:25:31.268Z,21.98
2018-10-19T05:27:57.231Z,21.97
2018-10-19T05:30:23.195Z,21.97
2018-10-19T05:32:49.438Z,21.97
2018-10-19T05:35:15.548Z,21.96
2018-10-19T05:37:41.457Z,21.95
2018-10-19T05:40:07.427Z,21.95
2018-10-19T05:42:33.368Z,21.96
2018-10-19T05:44:59.338Z,21.95
2018-10-19T05:47:25.288Z,21.94
2018-10-19T05:49:51.264Z,21.94
2018-10-19T05:52:17.259Z,21.95
2018-10-19T05:54:43.200Z,21.94
2018-10-19T05:57:09.164Z,21.94
2018-10-19T05:59:35.195Z,21.95
2018-10-19T06:02:01.226Z,21.95
2018-10-19T06:04:27.112Z,21.95
2018-10-19T06:06:53.381Z,21.95
2018-10-19T06:09:19.349Z,21.88
2018-10-19T06:11:45.292Z,21.91
2018-10-19T06:14:11.356Z,21.93
2018-10-19T06:16:37.265Z,21.92
2018-10-19T06:19:03.245Z,21.93
2018-10-19T06:21:29.198Z,21.91
2018-10-19T06:23:55.188Z,21.91
2018-10-19T06:26:21.245Z,21.92
2018-10-19T06:28:47.113Z,21.92
2018-10-19T06:31:13.397Z,21.90
2018-10-19T06:33:41.476Z,21.90
2018-10-19T06:36:07.434Z,21.89
2018-10-19T06:38:33.385Z,21.90
2018-10-19T06:40:59.409Z,21.91
2018-10-19T06:43:25.336Z,21.91
2018-10-19T06:45:51.323Z,21.91
2018-10-19T06:48:17.535Z,21.91
2018-10-19T06:50:43.488Z,21.91
2018-10-19T06:53:09.600Z,21.89
2018-10-19T06:55:35.483Z,21.89
2018-10-19T06:58:01.469Z,21.89
2018-10-19T07:00:27.426Z,21.90
2018-10-19T07:02:53.404Z,21.91
2018-10-19T07:05:19.363Z,21.91
2018-10-19T07:07:45.356Z,21.94
2018-10-19T07:10:11.288Z,21.96
2018-10-19T07:12:37.244Z,21.97
2018-10-19T07:15:03.189Z,21.99
2018-10-19T07:17:29.149Z,22.01
2018-10-19T07:19:55.139Z,22.02
2018-10-19T07:22:21.177Z,22.02
2018-10-19T07:24:47.155Z,22.03
2018-10-19T07:27:13.103Z,22.04
2018-10-19T07:29:39.083Z,22.03
2018-10-19T07:32:05.032Z,22.03
2018-10-19T07:34:31.023Z,22.03
2018-10-19T07:36:56.964Z,22.05
2018-10-19T07:39:23.035Z,22.04
2018-10-19T07:41:49.031Z,22.05
2018-10-19T07:44:15.008Z,22.04
2018-10-19T07:46:40.940Z,22.03
2018-10-19T07:49:06.933Z,22.05
2018-10-19T07:51:33.075Z,22.07
2018-10-19T07:53:59.170Z,22.08
2018-10-19T07:56:25.068Z,22.07
2018-10-19T07:58:51.220Z,22.04
2018-10-19T08:01:17.354Z,22.02
2018-10-19T08:03:43.224Z,22.02
2018-10-19T08:06:09.196Z,22.03
2018-10-19T08:08:35.249Z,22.02
2018-10-19T08:11:01.242Z,22.02
2018-10-19T08:13:27.246Z,22.01
2018-10-19T08:15:53.200Z,22.00
2018-10-19T08:18:19.171Z,22.05
2018-10-19T08:20:45.145Z,22.06
2018-10-19T08:23:11.233Z,22.07
2018-10-19T08:25:37.115Z,22.05
2018-10-19T08:28:03.120Z,22.06
2018-10-19T08:30:29.100Z,22.06
2018-10-19T08:32:55.065Z,22.07
2018-10-19T08:35:21.111Z,22.05
2018-10-19T08:37:47.079Z,22.07
2018-10-19T08:40:13.101Z,22.06
2018-10-19T08:42:39.075Z,22.05
2018-10-19T08:45:05.042Z,22.06
2018-10-19T08:47:30.967Z,22.07
2018-10-19T08:49:56.934Z,22.05
2018-10-19T08:52:22.879Z,22.07
2018-10-19T08:54:49.005Z,22.03
2018-10-19T08:57:14.968Z,22.02
2018-10-19T08:59:40.840Z,22.06
2018-10-19T09:02:06.783Z,22.03
2018-10-19T09:04:32.737Z,22.03
2018-10-19T09:06:58.766Z,22.04
2018-10-19T09:09:24.724Z,22.05
2018-10-19T09:11:50.750Z,22.05
2018-10-19T09:14:16.645Z,22.03
2018-10-19T09:16:42.608Z,22.04
2018-10-19T09:19:08.598Z,22.05
2018-10-19T09:21:34.555Z,22.02
2018-10-19T09:24:00.541Z,22.02
2018-10-19T09:26:26.592Z,22.05
2018-10-19T09:28:52.536Z,22.03
2018-10-19T09:31:18.484Z,22.04
2018-10-19T09:33:44.474Z,22.06
2018-10-19T09:36:10.557Z,22.07
2018-10-19T09:38:36.438Z,22.07
2018-10-19T09:41:02.488Z,22.08
2018-10-19T09:43:28.462Z,22.07
2018-10-19T09:45:54.404Z,22.07
2018-10-19T09:48:20.377Z,22.08
2018-10-19T09:50:46.352Z,22.07
2018-10-19T09:53:12.376Z,22.07
2018-10-19T09:55:38.253Z,22.05
2018-10-19T09:58:04.615Z,22.03
2018-10-19T10:00:30.584Z,22.05
2018-10-19T10:02:56.564Z,22.07
2018-10-19T10:05:22.515Z,22.08
2018-10-19T10:07:48.482Z,22.05
2018-10-19T10:10:14.457Z,22.07
2018-10-19T10:12:40.434Z,22.10
2018-10-19T10:15:06.656Z,22.09
2018-10-19T10:17:32.415Z,22.08
2018-10-19T10:19:59.029Z,22.07
2018-10-19T10:22:25.157Z,22.07
2018-10-19T10:24:51.160Z,22.09
2018-10-19T10:27:17.085Z,22.09
2018-10-19T10:29:43.149Z,22.07
2018-10-19T10:32:09.311Z,22.06
2018-10-19T10:34:35.565Z,22.07
2018-10-19T10:37:01.577Z,22.06
2018-10-19T10:39:27.459Z,22.09
2018-10-19T10:41:53.436Z,22.10
2018-10-19T10:44:19.410Z,22.10
2018-10-19T10:46:45.411Z,22.09
2018-10-19T10:49:11.428Z,22.08
2018-10-19T10:51:37.358Z,22.11
2018-10-19T10:54:03.380Z,22.09
2018-10-19T10:56:29.337Z,22.09
2018-10-19T10:58:55.445Z,22.09
2018-10-19T11:01:21.532Z,22.10
2018-10-19T11:03:47.482Z,22.11
2018-10-19T11:06:13.456Z,22.09
2018-10-19T11:08:39.417Z,22.10
2018-10-19T11:11:05.428Z,22.09
2018-10-19T11:13:31.378Z,22.09
2018-10-19T11:15:57.349Z,22.09
2018-10-19T11:18:23.300Z,22.08
2018-10-19T11:20:49.289Z,22.10
2018-10-19T11:23:15.238Z,22.10
2018-10-19T11:25:41.313Z,22.09
2018-10-19T11:28:07.359Z,22.09
2018-10-19T11:30:33.353Z,22.10
2018-10-19T11:32:59.268Z,22.14
2018-10-19T11:35:25.222Z,22.15
2018-10-19T11:37:51.228Z,22.15
2018-10-19T11:40:17.278Z,22.13
2018-10-19T11:42:43.219Z,22.11
2018-10-19T11:45:09.174Z,22.11
2018-10-19T11:47:35.124Z,22.10
2018-10-19T11:50:01.084Z,22.10
2018-10-19T11:52:27.021Z,22.09
2018-10-19T11:54:53.081Z,22.09
2018-10-19T11:57:18.997Z,22.10
2018-10-19T11:59:44.949Z,22.09
2018-10-19T12:02:10.928Z,22.09
2018-10-19T12:04:36.944Z,22.10
2018-10-19T12:07:03.074Z,22.09
2018-10-19T12:09:28.983Z,22.11
2018-10-19T12:11:55.027Z,22.09
2018-10-19T12:14:21.007Z,22.10
2018-10-19T12:16:47.004Z,22.12
2018-10-19T12:19:13.003Z,22.13
2018-10-19T12:21:38.912Z,22.14
2018-10-19T12:24:04.884Z,22.14
2018-10-19T12:26:30.823Z,22.12
2018-10-19T12:28:56.825Z,22.12
2018-10-19T12:31:22.779Z,22.11
2018-10-19T12:33:48.749Z,22.10
2018-10-19T12:36:14.713Z,22.10
2018-10-19T12:38:40.677Z,22.10
2018-10-19T12:41:06.751Z,22.09
2018-10-19T12:43:32.644Z,22.09
2018-10-19T12:45:58.594Z,22.08
2018-10-19T12:48:24.549Z,22.08
2018-10-19T12:50:50.508Z,22.09
2018-10-19T12:53:16.463Z,22.06
2018-10-19T12:55:42.404Z,22.08
2018-10-19T12:58:08.352Z,22.07
2018-10-19T13:00:34.345Z,22.08
2018-10-19T13:03:00.355Z,22.09
2018-10-19T13:05:26.352Z,22.09
2018-10-19T13:07:52.303Z,22.12
2018-10-19T13:10:18.259Z,22.12
2018-10-19T13:12:44.198Z,22.12
2018-10-19T13:15:10.317Z,22.09
2018-10-19T13:17:36.207Z,22.09
2018-10-19T13:20:02.212Z,22.10
2018-10-19T13:22:28.188Z,22.09
2018-10-19T13:24:54.148Z,22.09
2018-10-19T13:27:20.104Z,22.09
2018-10-19T13:29:46.122Z,22.08
2018-10-19T13:32:12.148Z,22.09
2018-10-19T13:34:38.120Z,22.08
2018-10-19T13:37:04.064Z,22.08
2018-10-19T13:39:30.034Z,22.08
2018-10-19T13:41:56.040Z,22.07
2018-10-19T13:44:22.150Z,22.08
2018-10-19T13:46:48.107Z,22.09
2018-10-19T13:49:14.094Z,22.12
2018-10-19T13:51:40.041Z,22.13
2018-10-19T13:54:06.012Z,22.14
2018-10-19T13:56:32.031Z,22.11
2018-10-19T13:58:57.999Z,22.12
2018-10-19T14:01:23.992Z,22.13
2018-10-19T14:03:49.952Z,22.12
2018-10-19T14:06:15.960Z,22.11
2018-10-19T14:08:41.921Z,22.11
2018-10-19T14:11:07.919Z,22.10
2018-10-19T14:13:33.898Z,22.09
2018-10-19T14:15:59.851Z,22.09
2018-10-19T14:18:25.825Z,22.08
2018-10-19T14:20:51.809Z,22.10
2018-10-19T14:23:18.056Z,22.09
2018-10-19T14:25:43.956Z,22.10
2018-10-19T14:28:10.014Z,22.10
2018-10-19T14:30:35.975Z,22.09
2018-10-19T14:33:02.082Z,22.08
2018-10-19T14:35:27.995Z,22.11
2018-10-19T14:37:54.037Z,22.12
2018-10-19T14:40:20.016Z,22.14
2018-10-19T14:42:45.994Z,22.15
2018-10-19T14:45:12.000Z,22.13
2018-10-19T14:47:38.060Z,22.14
2018-10-19T14:50:04.082Z,22.12
2018-10-19T14:52:30.041Z,22.12
2018-10-19T14:54:55.984Z,22.13
2018-10-19T14:57:21.944Z,22.12
2018-10-19T14:59:47.903Z,22.11
2018-10-19T15:02:13.928Z,22.12
2018-10-19T15:04:39.911Z,22.11
2018-10-19T15:07:05.888Z,22.11
2018-10-19T15:09:31.888Z,22.10
2018-10-19T15:11:57.948Z,22.11
2018-10-19T15:14:23.905Z,22.11
2018-10-19T15:16:49.968Z,22.09
2018-10-19T15:19:15.919Z,22.11
2018-10-19T15:21:41.899Z,22.11
2018-10-19T15:24:07.917Z,22.12
2018-10-19T15:26:33.883Z,22.14
2018-10-19T15:28:59.894Z,22.14
2018-10-19T15:31:25.840Z,22.12
2018-10-19T15:33:51.869Z,22.14
2018-10-19T15:36:17.859Z,22.14
2018-10-19T15:38:43.818Z,22.14
2018-10-19T15:41:09.953Z,22.11
2018-10-19T15:43:36.049Z,22.10
2018-10-19T15:46:02.034Z,22.08
2018-10-19T15:48:27.997Z,22.10
2018-10-19T15:50:53.974Z,22.08
2018-10-19T15:53:19.952Z,22.09
2018-10-19T15:55:45.903Z,22.09
2018-10-19T15:58:11.876Z,22.09
2018-10-19T16:00:38.856Z,22.10
2018-10-19T16:03:04.885Z,22.09
2018-10-19T16:05:30.853Z,22.11
2018-10-19T16:07:56.828Z,22.12
2018-10-19T16:10:22.869Z,22.14
2018-10-19T16:12:48.948Z,22.15
2018-10-19T16:15:15.005Z,22.15
2018-10-19T16:17:41.081Z,22.14
2018-10-19T16:20:07.046Z,22.13
2018-10-19T16:22:33.064Z,22.12
2018-10-19T16:24:59.023Z,22.12
2018-10-19T16:27:25.029Z,22.08
2018-10-19T16:29:51.044Z,22.10
2018-10-19T16:32:17.000Z,22.10
2018-10-19T16:34:42.958Z,22.09
2018-10-19T16:37:08.946Z,22.10
2018-10-19T16:39:34.913Z,22.09
2018-10-19T16:42:00.867Z,22.08
2018-10-19T16:44:26.812Z,22.08
2018-10-19T16:46:52.776Z,22.09
2018-10-19T16:49:18.751Z,22.09
2018-10-19T16:51:44.776Z,22.09
2018-10-19T16:54:10.892Z,22.10
2018-10-19T16:56:36.765Z,22.11
2018-10-19T16:59:02.731Z,22.11
2018-10-19T17:01:28.719Z,22.10
2018-10-19T17:03:54.729Z,22.11
2018-10-19T17:06:20.669Z,22.11
2018-10-19T17:08:46.644Z,22.11
2018-10-19T17:11:12.605Z,22.10
2018-10-19T17:13:38.602Z,22.09
2018-10-19T17:16:04.580Z,22.08
2018-10-19T17:18:30.538Z,22.08
2018-10-19T17:20:56.547Z,22.07
2018-10-19T17:23:22.496Z,22.06
2018-10-19T17:25:48.476Z,22.07
2018-10-19T17:28:14.440Z,22.08
2018-10-19T17:30:40.426Z,22.07
2018-10-19T17:33:06.441Z,22.07
2018-10-19T17:35:32.361Z,22.07
2018-10-19T17:37:58.314Z,22.07
2018-10-19T17:40:24.304Z,22.10
2018-10-19T17:42:50.359Z,22.08
2018-10-19T17:45:16.395Z,22.08
2018-10-19T17:47:42.380Z,22.05
2018-10-19T17:50:08.289Z,22.08
2018-10-19T17:52:34.284Z,22.09
2018-10-19T17:55:00.233Z,22.09
2018-10-19T17:57:26.249Z,22.08
2018-10-19T17:59:52.265Z,22.08
2018-10-19T18:02:18.267Z,22.07
2018-10-19T18:04:44.309Z,22.06
2018-10-19T18:07:10.272Z,22.04
2018-10-19T18:09:36.318Z,22.05
2018-10-19T18:12:02.233Z,22.04
2018-10-19T18:14:28.279Z,22.07
2018-10-19T18:16:54.334Z,22.05
2018-10-19T18:19:20.279Z,22.09
2018-10-19T18:21:46.326Z,22.06
2018-10-19T18:24:12.260Z,22.07
2018-10-19T18:26:38.231Z,22.08
2018-10-19T18:29:04.277Z,22.07
2018-10-19T18:31:30.223Z,22.08
2018-10-19T18:33:56.175Z,22.08
2018-10-19T18:36:22.223Z,22.08
2018-10-19T18:38:48.179Z,22.02
2018-10-19T18:41:14.334Z,22.05
2018-10-19T18:43:40.296Z,22.05
2018-10-19T18:46:06.331Z,22.05
2018-10-19T18:48:32.304Z,22.05
2018-10-19T18:50:58.337Z,22.05
2018-10-19T18:53:24.320Z,22.03
2018-10-19T18:55:50.267Z,22.03
2018-10-19T18:58:16.248Z,22.03
2018-10-19T19:00:42.228Z,22.03
2018-10-19T19:03:08.224Z,22.03
2018-10-19T19:05:34.203Z,22.04
2018-10-19T19:08:00.190Z,22.03
2018-10-19T19:10:26.147Z,22.02
2018-10-19T19:12:52.240Z,22.04
2018-10-19T19:15:18.210Z,22.04
2018-10-19T19:17:44.287Z,22.02
2018-10-19T19:20:10.338Z,22.02
2018-10-19T19:22:36.346Z,22.03
2018-10-19T19:25:02.293Z,22.01
2018-10-19T19:27:28.252Z,22.03
2018-10-19T19:29:54.268Z,22.01
2018-10-19T19:32:20.279Z,22.01
2018-10-19T19:34:46.237Z,22.02
2018-10-19T19:37:12.343Z,22.01
2018-10-19T19:39:38.315Z,21.99
2018-10-19T19:42:04.283Z,21.99
2018-10-19T19:44:30.252Z,21.97
2018-10-19T19:46:56.210Z,21.97
2018-10-19T19:49:22.315Z,21.95
2018-10-19T19:51:49.330Z,21.94
2018-10-19T19:54:15.304Z,21.94
2018-10-19T19:56:41.332Z,21.94
2018-10-19T19:59:07.464Z,21.94
2018-10-19T20:01:33.402Z,21.95
2018-10-19T20:03:59.394Z,21.97
2018-10-19T20:06:25.402Z,21.95
2018-10-19T20:08:51.373Z,21.95
2018-10-19T20:11:17.345Z,21.95
2018-10-19T20:13:43.369Z,21.92
2018-10-19T20:16:09.340Z,21.90
2018-10-19T20:18:35.313Z,21.91
2018-10-19T20:21:01.365Z,21.89
2018-10-19T20:23:27.410Z,21.87
2018-10-19T20:25:53.453Z,21.89
2018-10-19T20:28:19.457Z,21.87
2018-10-19T20:30:45.436Z,21.88
2018-10-19T20:33:11.417Z,21.86
2018-10-19T20:35:37.376Z,21.84
2018-10-19T20:38:03.362Z,21.86
2018-10-19T20:40:29.407Z,21.86
2018-10-19T20:42:55.358Z,21.86
2018-10-19T20:45:21.338Z,21.84
2018-10-19T20:47:47.312Z,21.86
2018-10-19T20:50:13.398Z,21.88
2018-10-19T20:52:39.244Z,21.88
2018-10-19T20:55:05.189Z,21.85
2018-10-19T20:57:31.136Z,21.82
2018-10-19T20:59:57.097Z,21.80
2018-10-19T21:02:23.086Z,21.78
2018-10-19T21:04:49.068Z,21.77
2018-10-19T21:07:15.035Z,21.76
2018-10-19T21:09:40.992Z,21.76
2018-10-19T21:12:07.298Z,21.75
2018-10-19T21:14:33.275Z,21.76
2018-10-19T21:16:59.310Z,21.74
2018-10-19T21:19:25.362Z,21.73
2018-10-19T21:21:51.403Z,21.73
2018-10-19T21:24:17.409Z,21.71
2018-10-19T21:26:43.356Z,21.72
2018-10-19T21:29:09.554Z,21.71
2018-10-19T21:31:35.712Z,21.71
2018-10-19T21:34:01.681Z,21.72
2018-10-19T21:36:27.639Z,21.72
2018-10-19T21:38:53.602Z,21.72
2018-10-19T21:41:19.590Z,21.71
2018-10-19T21:43:45.631Z,21.70
2018-10-19T21:46:11.667Z,21.69
2018-10-19T21:48:37.627Z,21.67
2018-10-19T21:51:03.609Z,21.66
2018-10-19T21:53:29.568Z,21.65
2018-10-19T21:55:55.564Z,21.64
2018-10-19T21:58:21.487Z,21.64
2018-10-19T22:00:47.470Z,21.62
2018-10-19T22:03:13.436Z,21.60
2018-10-19T22:05:39.412Z,21.59
2018-10-19T22:08:05.387Z,21.60
2018-10-19T22:10:31.487Z,21.59
2018-10-19T22:12:57.551Z,21.59
2018-10-19T22:15:23.439Z,21.59
2018-10-19T22:17:49.500Z,21.60
2018-10-19T22:20:15.508Z,21.62
2018-10-19T22:22:41.477Z,21.62
2018-10-19T22:25:07.458Z,21.61
2018-10-19T22:27:33.384Z,21.61
2018-10-19T22:29:59.340Z,21.59
2018-10-19T22:32:25.325Z,21.57
2018-10-19T22:34:51.335Z,21.57
2018-10-19T22:37:17.304Z,21.55
2018-10-19T22:39:43.256Z,21.54
2018-10-19T22:42:09.240Z,21.52
2018-10-19T22:44:35.233Z,21.52
2018-10-19T22:47:01.250Z,21.51
2018-10-19T22:49:27.419Z,21.50
2018-10-19T22:51:53.449Z,21.50
2018-10-19T22:54:19.407Z,21.48
2018-10-19T22:56:45.463Z,21.46
2018-10-19T22:59:11.574Z,21.46
2018-10-19T23:01:37.364Z,21.47
2018-10-19T23:04:03.359Z,21.50
2018-10-19T23:06:29.326Z,21.52
2018-10-19T23:08:55.347Z,21.52
2018-10-19T23:11:21.713Z,21.53
2018-10-19T23:13:47.673Z,21.52
2018-10-19T23:16:13.668Z,21.52
2018-10-19T23:18:39.649Z,21.51
2018-10-19T23:21:05.618Z,21.50
2018-10-19T23:23:31.719Z,21.51
2018-10-19T23:25:57.678Z,21.51
2018-10-19T23:28:23.629Z,21.50
2018-10-19T23:30:49.681Z,21.50
2018-10-19T23:33:15.619Z,21.51
2018-10-19T23:35:41.575Z,21.51
2018-10-19T23:38:07.550Z,21.50
2018-10-19T23:40:33.503Z,21.51
2018-10-19T23:42:59.458Z,21.51
2018-10-19T23:45:25.469Z,21.52
2018-10-19T23:47:51.428Z,21.52
2018-10-19T23:50:17.416Z,21.52
2018-10-19T23:52:43.364Z,21.55
2018-10-19T23:55:09.345Z,21.55
2018-10-19T23:57:35.276Z,21.56
